sensor_id;sensor_type;location;lat;lon;timestamp;P1;P2;P0
52290;PMS5003;39663;45.432;28.050;2023-08-24T00:00:24;16.0;15.0;
52290;PMS5003;39663;45.432;28.050;2023-08-24T00:00:56;13.0;13.0;
52290;PMS5003;39663;45.432;28.050;2023-08-24T00:01:27;13.0;13.0;
52290;PMS5003;39663;45.432;28.050;2023-08-24T00:01:59;15.0;14.0;
52290;PMS5003;39663;45.432;28.050;2023-08-24T00:02:30;14.0;12.0;
52290;PMS5003;39663;45.432;28.050;2023-08-24T00:03:02;15.0;13.0;
52290;PMS5003;39663;45.432;28.050;2023-08-24T00:03:34;15.0;14.0;
52290;PMS5003;39663;45.432;28.050;2023-08-24T00:04:06;15.0;14.0;
52290;PMS5003;39663;45.432;28.050;2023-08-24T00:04:37;15.0;15.0;
52290;PMS5003;39663;45.432;28.050;2023-08-24T00:05:09;11.0;11.0;
52290;PMS5003;39663;45.432;28.050;2023-08-24T00:05:40;16.0;16.0;
52290;PMS5003;39663;45.432;28.050;2023-08-24T00:06:12;15.0;14.0;
52290;PMS5003;39663;45.432;28.050;2023-08-24T00:06:44;16.0;16.0;
52290;PMS5003;39663;45.432;28.050;2023-08-24T00:07:15;14.0;14.0;
52290;PMS5003;39663;45.432;28.050;2023-08-24T00:07:47;16.0;16.0;
52290;PMS5003;39663;45.432;28.050;2023-08-24T00:08:18;16.0;16.0;
52290;PMS5003;39663;45.432;28.050;2023-08-24T00:08:50;15.0;15.0;
52290;PMS5003;39663;45.432;28.050;2023-08-24T00:09:22;14.0;14.0;
52290;PMS5003;39663;45.432;28.050;2023-08-24T00:09:53;13.0;13.0;
52290;PMS5003;39663;45.432;28.050;2023-08-24T00:10:25;13.0;13.0;
52290;PMS5003;39663;45.432;28.050;2023-08-24T00:10:57;17.0;15.0;
52290;PMS5003;39663;45.432;28.050;2023-08-24T00:11:28;15.0;14.0;
52290;PMS5003;39663;45.432;28.050;2023-08-24T00:12:00;16.0;13.0;
52290;PMS5003;39663;45.432;28.050;2023-08-24T00:12:32;16.0;15.0;
52290;PMS5003;39663;45.432;28.050;2023-08-24T00:13:05;17.0;15.0;
52290;PMS5003;39663;45.432;28.050;2023-08-24T00:13:36;15.0;13.0;
52290;PMS5003;39663;45.432;28.050;2023-08-24T00:14:08;17.0;17.0;
52290;PMS5003;39663;45.432;28.050;2023-08-24T00:14:40;15.0;15.0;
52290;PMS5003;39663;45.432;28.050;2023-08-24T00:15:11;16.0;16.0;
52290;PMS5003;39663;45.432;28.050;2023-08-24T00:15:43;18.0;17.0;
52290;PMS5003;39663;45.432;28.050;2023-08-24T00:16:16;16.0;14.0;
52290;PMS5003;39663;45.432;28.050;2023-08-24T00:16:48;16.0;15.0;
52290;PMS5003;39663;45.432;28.050;2023-08-24T00:17:19;16.0;15.0;
52290;PMS5003;39663;45.432;28.050;2023-08-24T00:17:51;16.0;16.0;
52290;PMS5003;39663;45.432;28.050;2023-08-24T00:18:22;15.0;13.0;
52290;PMS5003;39663;45.432;28.050;2023-08-24T00:18:55;18.0;17.0;
52290;PMS5003;39663;45.432;28.050;2023-08-24T00:19:27;13.0;13.0;
52290;PMS5003;39663;45.432;28.050;2023-08-24T00:19:58;13.0;13.0;
52290;PMS5003;39663;45.432;28.050;2023-08-24T00:20:30;17.0;14.0;
52290;PMS5003;39663;45.432;28.050;2023-08-24T00:21:01;17.0;16.0;
52290;PMS5003;39663;45.432;28.050;2023-08-24T00:21:33;13.0;13.0;
52290;PMS5003;39663;45.432;28.050;2023-08-24T00:22:04;18.0;18.0;
52290;PMS5003;39663;45.432;28.050;2023-08-24T00:22:37;18.0;17.0;
52290;PMS5003;39663;45.432;28.050;2023-08-24T00:23:08;16.0;14.0;
52290;PMS5003;39663;45.432;28.050;2023-08-24T00:23:40;12.0;12.0;
52290;PMS5003;39663;45.432;28.050;2023-08-24T00:24:11;17.0;17.0;
52290;PMS5003;39663;45.432;28.050;2023-08-24T00:24:43;15.0;13.0;
52290;PMS5003;39663;45.432;28.050;2023-08-24T00:25:14;15.0;15.0;
52290;PMS5003;39663;45.432;28.050;2023-08-24T00:25:46;14.0;14.0;
52290;PMS5003;39663;45.432;28.050;2023-08-24T00:26:17;17.0;17.0;
52290;PMS5003;39663;45.432;28.050;2023-08-24T00:26:49;18.0;17.0;
52290;PMS5003;39663;45.432;28.050;2023-08-24T00:27:21;16.0;16.0;
52290;PMS5003;39663;45.432;28.050;2023-08-24T00:27:52;15.0;15.0;
52290;PMS5003;39663;45.432;28.050;2023-08-24T00:28:25;19.0;17.0;
52290;PMS5003;39663;45.432;28.050;2023-08-24T00:28:56;15.0;14.0;
52290;PMS5003;39663;45.432;28.050;2023-08-24T00:29:28;19.0;19.0;
52290;PMS5003;39663;45.432;28.050;2023-08-24T00:29:59;17.0;17.0;
52290;PMS5003;39663;45.432;28.050;2023-08-24T00:30:32;16.0;15.0;
52290;PMS5003;39663;45.432;28.050;2023-08-24T00:31:04;15.0;14.0;
52290;PMS5003;39663;45.432;28.050;2023-08-24T00:31:36;16.0;16.0;
52290;PMS5003;39663;45.432;28.050;2023-08-24T00:32:07;16.0;16.0;
52290;PMS5003;39663;45.432;28.050;2023-08-24T00:32:39;17.0;16.0;
52290;PMS5003;39663;45.432;28.050;2023-08-24T00:33:11;16.0;16.0;
52290;PMS5003;39663;45.432;28.050;2023-08-24T00:33:42;14.0;14.0;
52290;PMS5003;39663;45.432;28.050;2023-08-24T00:34:14;20.0;19.0;
52290;PMS5003;39663;45.432;28.050;2023-08-24T00:34:45;16.0;16.0;
52290;PMS5003;39663;45.432;28.050;2023-08-24T00:35:17;16.0;16.0;
52290;PMS5003;39663;45.432;28.050;2023-08-24T00:35:49;19.0;16.0;
52290;PMS5003;39663;45.432;28.050;2023-08-24T00:36:20;17.0;17.0;
52290;PMS5003;39663;45.432;28.050;2023-08-24T00:36:52;17.0;16.0;
52290;PMS5003;39663;45.432;28.050;2023-08-24T00:37:23;18.0;16.0;
52290;PMS5003;39663;45.432;28.050;2023-08-24T00:37:55;18.0;16.0;
52290;PMS5003;39663;45.432;28.050;2023-08-24T00:38:27;16.0;16.0;
52290;PMS5003;39663;45.432;28.050;2023-08-24T00:38:59;16.0;16.0;
52290;PMS5003;39663;45.432;28.050;2023-08-24T00:39:30;17.0;17.0;
52290;PMS5003;39663;45.432;28.050;2023-08-24T00:40:03;17.0;17.0;
52290;PMS5003;39663;45.432;28.050;2023-08-24T00:40:36;23.0;17.0;
52290;PMS5003;39663;45.432;28.050;2023-08-24T00:41:08;18.0;18.0;
52290;PMS5003;39663;45.432;28.050;2023-08-24T00:41:40;18.0;18.0;
52290;PMS5003;39663;45.432;28.050;2023-08-24T00:42:11;17.0;15.0;
52290;PMS5003;39663;45.432;28.050;2023-08-24T00:42:43;20.0;18.0;
52290;PMS5003;39663;45.432;28.050;2023-08-24T00:43:15;17.0;17.0;
52290;PMS5003;39663;45.432;28.050;2023-08-24T00:43:47;20.0;20.0;
52290;PMS5003;39663;45.432;28.050;2023-08-24T00:44:18;17.0;17.0;
52290;PMS5003;39663;45.432;28.050;2023-08-24T00:44:50;19.0;17.0;
52290;PMS5003;39663;45.432;28.050;2023-08-24T00:45:22;17.0;17.0;
52290;PMS5003;39663;45.432;28.050;2023-08-24T00:45:53;17.0;17.0;
52290;PMS5003;39663;45.432;28.050;2023-08-24T00:46:27;17.0;15.0;
52290;PMS5003;39663;45.432;28.050;2023-08-24T00:46:59;20.0;19.0;
52290;PMS5003;39663;45.432;28.050;2023-08-24T00:47:31;21.0;17.0;
52290;PMS5003;39663;45.432;28.050;2023-08-24T00:48:03;17.0;17.0;
52290;PMS5003;39663;45.432;28.050;2023-08-24T00:48:35;22.0;22.0;
52290;PMS5003;39663;45.432;28.050;2023-08-24T00:49:07;17.0;16.0;
52290;PMS5003;39663;45.432;28.050;2023-08-24T00:49:39;18.0;18.0;
52290;PMS5003;39663;45.432;28.050;2023-08-24T00:50:11;15.0;15.0;
52290;PMS5003;39663;45.432;28.050;2023-08-24T00:50:43;18.0;17.0;
52290;PMS5003;39663;45.432;28.050;2023-08-24T00:51:15;19.0;17.0;
52290;PMS5003;39663;45.432;28.050;2023-08-24T00:51:47;15.0;15.0;
52290;PMS5003;39663;45.432;28.050;2023-08-24T00:52:19;18.0;16.0;
52290;PMS5003;39663;45.432;28.050;2023-08-24T00:52:50;20.0;18.0;
52290;PMS5003;39663;45.432;28.050;2023-08-24T00:53:23;16.0;16.0;
52290;PMS5003;39663;45.432;28.050;2023-08-24T00:53:57;23.0;21.0;
52290;PMS5003;39663;45.432;28.050;2023-08-24T00:54:29;21.0;17.0;
52290;PMS5003;39663;45.432;28.050;2023-08-24T00:55:00;20.0;19.0;
52290;PMS5003;39663;45.432;28.050;2023-08-24T00:55:32;18.0;18.0;
52290;PMS5003;39663;45.432;28.050;2023-08-24T00:56:04;18.0;18.0;
52290;PMS5003;39663;45.432;28.050;2023-08-24T00:56:36;18.0;18.0;
52290;PMS5003;39663;45.432;28.050;2023-08-24T00:57:08;18.0;17.0;
52290;PMS5003;39663;45.432;28.050;2023-08-24T00:57:40;15.0;15.0;
52290;PMS5003;39663;45.432;28.050;2023-08-24T00:58:11;17.0;16.0;
52290;PMS5003;39663;45.432;28.050;2023-08-24T00:58:44;17.0;17.0;
52290;PMS5003;39663;45.432;28.050;2023-08-24T00:59:17;18.0;17.0;
52290;PMS5003;39663;45.432;28.050;2023-08-24T00:59:49;16.0;16.0;
52290;PMS5003;39663;45.432;28.050;2023-08-24T01:00:21;18.0;18.0;
52290;PMS5003;39663;45.432;28.050;2023-08-24T01:00:53;16.0;16.0;
52290;PMS5003;39663;45.432;28.050;2023-08-24T01:01:28;19.0;19.0;
52290;PMS5003;39663;45.432;28.050;2023-08-24T01:01:59;23.0;20.0;
52290;PMS5003;39663;45.432;28.050;2023-08-24T01:02:32;18.0;18.0;
52290;PMS5003;39663;45.432;28.050;2023-08-24T01:03:04;17.0;16.0;
52290;PMS5003;39663;45.432;28.050;2023-08-24T01:03:36;18.0;18.0;
52290;PMS5003;39663;45.432;28.050;2023-08-24T01:04:07;16.0;15.0;
52290;PMS5003;39663;45.432;28.050;2023-08-24T01:04:40;18.0;16.0;
52290;PMS5003;39663;45.432;28.050;2023-08-24T01:05:12;16.0;16.0;
52290;PMS5003;39663;45.432;28.050;2023-08-24T01:05:46;15.0;15.0;
52290;PMS5003;39663;45.432;28.050;2023-08-24T01:06:17;18.0;18.0;
52290;PMS5003;39663;45.432;28.050;2023-08-24T01:06:49;18.0;16.0;
52290;PMS5003;39663;45.432;28.050;2023-08-24T01:07:21;17.0;15.0;
52290;PMS5003;39663;45.432;28.050;2023-08-24T01:07:52;17.0;17.0;
52290;PMS5003;39663;45.432;28.050;2023-08-24T01:08:24;17.0;17.0;
52290;PMS5003;39663;45.432;28.050;2023-08-24T01:08:56;16.0;16.0;
52290;PMS5003;39663;45.432;28.050;2023-08-24T01:09:28;15.0;13.0;
52290;PMS5003;39663;45.432;28.050;2023-08-24T01:09:59;18.0;17.0;
52290;PMS5003;39663;45.432;28.050;2023-08-24T01:10:34;17.0;17.0;
52290;PMS5003;39663;45.432;28.050;2023-08-24T01:11:12;20.0;17.0;
52290;PMS5003;39663;45.432;28.050;2023-08-24T01:11:56;18.0;17.0;
52290;PMS5003;39663;45.432;28.050;2023-08-24T01:12:36;20.0;19.0;
52290;PMS5003;39663;45.432;28.050;2023-08-24T01:13:21;17.0;17.0;
52290;PMS5003;39663;45.432;28.050;2023-08-24T01:13:59;14.0;14.0;
52290;PMS5003;39663;45.432;28.050;2023-08-24T01:14:41;20.0;19.0;
52290;PMS5003;39663;45.432;28.050;2023-08-24T01:15:29;21.0;19.0;
52290;PMS5003;39663;45.432;28.050;2023-08-24T01:16:08;17.0;17.0;
52290;PMS5003;39663;45.432;28.050;2023-08-24T01:16:46;17.0;17.0;
52290;PMS5003;39663;45.432;28.050;2023-08-24T01:17:21;17.0;16.0;
52290;PMS5003;39663;45.432;28.050;2023-08-24T01:17:55;16.0;16.0;
52290;PMS5003;39663;45.432;28.050;2023-08-24T01:18:31;18.0;17.0;
52290;PMS5003;39663;45.432;28.050;2023-08-24T01:19:05;18.0;17.0;
52290;PMS5003;39663;45.432;28.050;2023-08-24T01:19:41;17.0;17.0;
52290;PMS5003;39663;45.432;28.050;2023-08-24T01:20:13;17.0;17.0;
52290;PMS5003;39663;45.432;28.050;2023-08-24T01:20:45;16.0;16.0;
52290;PMS5003;39663;45.432;28.050;2023-08-24T01:21:19;17.0;17.0;
52290;PMS5003;39663;45.432;28.050;2023-08-24T01:21:51;17.0;16.0;
52290;PMS5003;39663;45.432;28.050;2023-08-24T01:22:32;18.0;16.0;
52290;PMS5003;39663;45.432;28.050;2023-08-24T01:23:09;16.0;16.0;
52290;PMS5003;39663;45.432;28.050;2023-08-24T01:23:57;18.0;18.0;
52290;PMS5003;39663;45.432;28.050;2023-08-24T01:24:36;17.0;17.0;
52290;PMS5003;39663;45.432;28.050;2023-08-24T01:25:15;18.0;18.0;
52290;PMS5003;39663;45.432;28.050;2023-08-24T01:25:51;22.0;18.0;
52290;PMS5003;39663;45.432;28.050;2023-08-24T01:26:24;18.0;16.0;
52290;PMS5003;39663;45.432;28.050;2023-08-24T01:26:57;16.0;16.0;
52290;PMS5003;39663;45.432;28.050;2023-08-24T01:27:30;20.0;19.0;
52290;PMS5003;39663;45.432;28.050;2023-08-24T01:28:05;24.0;19.0;
52290;PMS5003;39663;45.432;28.050;2023-08-24T01:28:37;25.0;21.0;
52290;PMS5003;39663;45.432;28.050;2023-08-24T01:29:10;20.0;18.0;
52290;PMS5003;39663;45.432;28.050;2023-08-24T01:29:42;21.0;19.0;
52290;PMS5003;39663;45.432;28.050;2023-08-24T01:30:13;23.0;20.0;
52290;PMS5003;39663;45.432;28.050;2023-08-24T01:30:46;21.0;17.0;
52290;PMS5003;39663;45.432;28.050;2023-08-24T01:31:18;18.0;15.0;
52290;PMS5003;39663;45.432;28.050;2023-08-24T01:31:49;19.0;17.0;
52290;PMS5003;39663;45.432;28.050;2023-08-24T01:32:21;18.0;15.0;
52290;PMS5003;39663;45.432;28.050;2023-08-24T01:32:53;20.0;18.0;
52290;PMS5003;39663;45.432;28.050;2023-08-24T01:33:24;22.0;20.0;
52290;PMS5003;39663;45.432;28.050;2023-08-24T01:33:56;18.0;17.0;
52290;PMS5003;39663;45.432;28.050;2023-08-24T01:34:28;20.0;17.0;
52290;PMS5003;39663;45.432;28.050;2023-08-24T01:35:00;20.0;18.0;
52290;PMS5003;39663;45.432;28.050;2023-08-24T01:35:34;20.0;18.0;
52290;PMS5003;39663;45.432;28.050;2023-08-24T01:36:06;21.0;17.0;
52290;PMS5003;39663;45.432;28.050;2023-08-24T01:36:38;17.0;16.0;
52290;PMS5003;39663;45.432;28.050;2023-08-24T01:37:10;18.0;16.0;
52290;PMS5003;39663;45.432;28.050;2023-08-24T01:37:41;18.0;16.0;
52290;PMS5003;39663;45.432;28.050;2023-08-24T01:38:13;22.0;19.0;
52290;PMS5003;39663;45.432;28.050;2023-08-24T01:38:45;21.0;19.0;
52290;PMS5003;39663;45.432;28.050;2023-08-24T01:39:27;18.0;18.0;
52290;PMS5003;39663;45.432;28.050;2023-08-24T01:40:06;17.0;17.0;
52290;PMS5003;39663;45.432;28.050;2023-08-24T01:40:43;18.0;18.0;
52290;PMS5003;39663;45.432;28.050;2023-08-24T01:41:24;18.0;18.0;
52290;PMS5003;39663;45.432;28.050;2023-08-24T01:42:02;16.0;15.0;
52290;PMS5003;39663;45.432;28.050;2023-08-24T01:42:43;17.0;17.0;
52290;PMS5003;39663;45.432;28.050;2023-08-24T01:43:21;19.0;19.0;
52290;PMS5003;39663;45.432;28.050;2023-08-24T01:44:00;19.0;17.0;
52290;PMS5003;39663;45.432;28.050;2023-08-24T01:44:34;19.0;18.0;
52290;PMS5003;39663;45.432;28.050;2023-08-24T01:45:08;24.0;22.0;
52290;PMS5003;39663;45.432;28.050;2023-08-24T01:45:41;20.0;19.0;
52290;PMS5003;39663;45.432;28.050;2023-08-24T01:46:15;23.0;18.0;
52290;PMS5003;39663;45.432;28.050;2023-08-24T01:46:50;19.0;18.0;
52290;PMS5003;39663;45.432;28.050;2023-08-24T01:47:24;19.0;18.0;
52290;PMS5003;39663;45.432;28.050;2023-08-24T01:47:57;20.0;19.0;
52290;PMS5003;39663;45.432;28.050;2023-08-24T01:48:32;18.0;18.0;
52290;PMS5003;39663;45.432;28.050;2023-08-24T01:49:04;20.0;16.0;
52290;PMS5003;39663;45.432;28.050;2023-08-24T01:49:37;22.0;20.0;
52290;PMS5003;39663;45.432;28.050;2023-08-24T01:50:11;18.0;18.0;
52290;PMS5003;39663;45.432;28.050;2023-08-24T01:50:43;26.0;20.0;
52290;PMS5003;39663;45.432;28.050;2023-08-24T01:51:16;20.0;20.0;
52290;PMS5003;39663;45.432;28.050;2023-08-24T01:51:49;24.0;24.0;
52290;PMS5003;39663;45.432;28.050;2023-08-24T01:52:21;22.0;18.0;
52290;PMS5003;39663;45.432;28.050;2023-08-24T01:52:53;23.0;20.0;
52290;PMS5003;39663;45.432;28.050;2023-08-24T01:53:25;18.0;17.0;
52290;PMS5003;39663;45.432;28.050;2023-08-24T01:53:58;18.0;16.0;
52290;PMS5003;39663;45.432;28.050;2023-08-24T01:54:30;19.0;18.0;
52290;PMS5003;39663;45.432;28.050;2023-08-24T01:55:03;19.0;17.0;
52290;PMS5003;39663;45.432;28.050;2023-08-24T01:55:35;17.0;17.0;
52290;PMS5003;39663;45.432;28.050;2023-08-24T01:56:08;21.0;19.0;
52290;PMS5003;39663;45.432;28.050;2023-08-24T01:56:40;20.0;17.0;
52290;PMS5003;39663;45.432;28.050;2023-08-24T01:57:11;19.0;19.0;
52290;PMS5003;39663;45.432;28.050;2023-08-24T01:57:43;19.0;18.0;
52290;PMS5003;39663;45.432;28.050;2023-08-24T01:58:15;21.0;20.0;
52290;PMS5003;39663;45.432;28.050;2023-08-24T01:58:46;18.0;18.0;
52290;PMS5003;39663;45.432;28.050;2023-08-24T01:59:18;22.0;18.0;
52290;PMS5003;39663;45.432;28.050;2023-08-24T01:59:50;18.0;17.0;
52290;PMS5003;39663;45.432;28.050;2023-08-24T02:00:21;18.0;17.0;
52290;PMS5003;39663;45.432;28.050;2023-08-24T02:00:53;19.0;17.0;
52290;PMS5003;39663;45.432;28.050;2023-08-24T02:01:25;17.0;17.0;
52290;PMS5003;39663;45.432;28.050;2023-08-24T02:01:56;24.0;22.0;
52290;PMS5003;39663;45.432;28.050;2023-08-24T02:02:28;20.0;19.0;
52290;PMS5003;39663;45.432;28.050;2023-08-24T02:02:59;18.0;18.0;
52290;PMS5003;39663;45.432;28.050;2023-08-24T02:03:31;22.0;21.0;
52290;PMS5003;39663;45.432;28.050;2023-08-24T02:04:02;21.0;20.0;
52290;PMS5003;39663;45.432;28.050;2023-08-24T02:04:34;21.0;21.0;
52290;PMS5003;39663;45.432;28.050;2023-08-24T02:05:06;21.0;19.0;
52290;PMS5003;39663;45.432;28.050;2023-08-24T02:05:38;21.0;19.0;
52290;PMS5003;39663;45.432;28.050;2023-08-24T02:06:09;20.0;18.0;
52290;PMS5003;39663;45.432;28.050;2023-08-24T02:06:41;18.0;17.0;
52290;PMS5003;39663;45.432;28.050;2023-08-24T02:07:13;18.0;18.0;
52290;PMS5003;39663;45.432;28.050;2023-08-24T02:07:44;25.0;22.0;
52290;PMS5003;39663;45.432;28.050;2023-08-24T02:08:16;22.0;19.0;
52290;PMS5003;39663;45.432;28.050;2023-08-24T02:08:47;21.0;20.0;
52290;PMS5003;39663;45.432;28.050;2023-08-24T02:09:19;16.0;16.0;
52290;PMS5003;39663;45.432;28.050;2023-08-24T02:09:50;22.0;21.0;
52290;PMS5003;39663;45.432;28.050;2023-08-24T02:10:22;17.0;16.0;
52290;PMS5003;39663;45.432;28.050;2023-08-24T02:10:53;18.0;17.0;
52290;PMS5003;39663;45.432;28.050;2023-08-24T02:11:25;20.0;18.0;
52290;PMS5003;39663;45.432;28.050;2023-08-24T02:11:56;18.0;18.0;
52290;PMS5003;39663;45.432;28.050;2023-08-24T02:12:28;28.0;23.0;
52290;PMS5003;39663;45.432;28.050;2023-08-24T02:12:59;20.0;17.0;
52290;PMS5003;39663;45.432;28.050;2023-08-24T02:13:31;19.0;18.0;
52290;PMS5003;39663;45.432;28.050;2023-08-24T02:14:02;18.0;17.0;
52290;PMS5003;39663;45.432;28.050;2023-08-24T02:14:34;16.0;16.0;
52290;PMS5003;39663;45.432;28.050;2023-08-24T02:15:06;18.0;17.0;
52290;PMS5003;39663;45.432;28.050;2023-08-24T02:15:38;17.0;17.0;
52290;PMS5003;39663;45.432;28.050;2023-08-24T02:16:10;19.0;19.0;
52290;PMS5003;39663;45.432;28.050;2023-08-24T02:16:41;19.0;15.0;
52290;PMS5003;39663;45.432;28.050;2023-08-24T02:17:13;15.0;15.0;
52290;PMS5003;39663;45.432;28.050;2023-08-24T02:17:44;18.0;18.0;
52290;PMS5003;39663;45.432;28.050;2023-08-24T02:18:16;19.0;18.0;
52290;PMS5003;39663;45.432;28.050;2023-08-24T02:18:47;20.0;18.0;
52290;PMS5003;39663;45.432;28.050;2023-08-24T02:19:19;19.0;16.0;
52290;PMS5003;39663;45.432;28.050;2023-08-24T02:19:50;14.0;14.0;
52290;PMS5003;39663;45.432;28.050;2023-08-24T02:20:22;21.0;21.0;
52290;PMS5003;39663;45.432;28.050;2023-08-24T02:20:53;20.0;20.0;
52290;PMS5003;39663;45.432;28.050;2023-08-24T02:21:25;17.0;17.0;
52290;PMS5003;39663;45.432;28.050;2023-08-24T02:21:56;18.0;17.0;
52290;PMS5003;39663;45.432;28.050;2023-08-24T02:22:28;20.0;18.0;
52290;PMS5003;39663;45.432;28.050;2023-08-24T02:23:00;22.0;20.0;
52290;PMS5003;39663;45.432;28.050;2023-08-24T02:23:31;22.0;22.0;
52290;PMS5003;39663;45.432;28.050;2023-08-24T02:24:03;18.0;18.0;
52290;PMS5003;39663;45.432;28.050;2023-08-24T02:24:35;24.0;21.0;
52290;PMS5003;39663;45.432;28.050;2023-08-24T02:25:08;17.0;17.0;
52290;PMS5003;39663;45.432;28.050;2023-08-24T02:25:42;19.0;17.0;
52290;PMS5003;39663;45.432;28.050;2023-08-24T02:26:13;17.0;15.0;
52290;PMS5003;39663;45.432;28.050;2023-08-24T02:26:45;19.0;18.0;
52290;PMS5003;39663;45.432;28.050;2023-08-24T02:27:16;22.0;19.0;
52290;PMS5003;39663;45.432;28.050;2023-08-24T02:27:48;18.0;16.0;
52290;PMS5003;39663;45.432;28.050;2023-08-24T02:28:25;17.0;17.0;
52290;PMS5003;39663;45.432;28.050;2023-08-24T02:28:57;27.0;25.0;
52290;PMS5003;39663;45.432;28.050;2023-08-24T02:29:29;21.0;21.0;
52290;PMS5003;39663;45.432;28.050;2023-08-24T02:30:01;27.0;21.0;
52290;PMS5003;39663;45.432;28.050;2023-08-24T02:30:33;23.0;19.0;
52290;PMS5003;39663;45.432;28.050;2023-08-24T02:31:08;99.0;93.0;
52290;PMS5003;39663;45.432;28.050;2023-08-24T02:31:40;44.0;39.0;
52290;PMS5003;39663;45.432;28.050;2023-08-24T02:32:11;27.0;24.0;
52290;PMS5003;39663;45.432;28.050;2023-08-24T02:32:43;21.0;19.0;
52290;PMS5003;39663;45.432;28.050;2023-08-24T02:33:14;27.0;25.0;
52290;PMS5003;39663;45.432;28.050;2023-08-24T02:33:46;51.0;46.0;
52290;PMS5003;39663;45.432;28.050;2023-08-24T02:34:17;83.0;79.0;
52290;PMS5003;39663;45.432;28.050;2023-08-24T02:34:49;117.0;113.0;
52290;PMS5003;39663;45.432;28.050;2023-08-24T02:35:20;42.0;40.0;
52290;PMS5003;39663;45.432;28.050;2023-08-24T02:35:52;31.0;29.0;
52290;PMS5003;39663;45.432;28.050;2023-08-24T02:36:23;38.0;36.0;
52290;PMS5003;39663;45.432;28.050;2023-08-24T02:36:56;53.0;50.0;
52290;PMS5003;39663;45.432;28.050;2023-08-24T02:37:27;53.0;53.0;
52290;PMS5003;39663;45.432;28.050;2023-08-24T02:37:59;65.0;61.0;
52290;PMS5003;39663;45.432;28.050;2023-08-24T02:38:30;65.0;61.0;
52290;PMS5003;39663;45.432;28.050;2023-08-24T02:39:02;46.0;44.0;
52290;PMS5003;39663;45.432;28.050;2023-08-24T02:39:34;40.0;37.0;
52290;PMS5003;39663;45.432;28.050;2023-08-24T02:40:06;24.0;21.0;
52290;PMS5003;39663;45.432;28.050;2023-08-24T02:40:38;34.0;34.0;
52290;PMS5003;39663;45.432;28.050;2023-08-24T02:41:09;40.0;38.0;
52290;PMS5003;39663;45.432;28.050;2023-08-24T02:41:41;44.0;42.0;
52290;PMS5003;39663;45.432;28.050;2023-08-24T02:42:12;40.0;38.0;
52290;PMS5003;39663;45.432;28.050;2023-08-24T02:42:44;39.0;39.0;
52290;PMS5003;39663;45.432;28.050;2023-08-24T02:43:16;37.0;36.0;
52290;PMS5003;39663;45.432;28.050;2023-08-24T02:43:47;31.0;29.0;
52290;PMS5003;39663;45.432;28.050;2023-08-24T02:44:18;34.0;34.0;
52290;PMS5003;39663;45.432;28.050;2023-08-24T02:44:50;27.0;26.0;
52290;PMS5003;39663;45.432;28.050;2023-08-24T02:45:22;31.0;30.0;
52290;PMS5003;39663;45.432;28.050;2023-08-24T02:45:53;21.0;21.0;
52290;PMS5003;39663;45.432;28.050;2023-08-24T02:46:24;21.0;21.0;
52290;PMS5003;39663;45.432;28.050;2023-08-24T02:46:56;27.0;26.0;
52290;PMS5003;39663;45.432;28.050;2023-08-24T02:47:28;21.0;19.0;
52290;PMS5003;39663;45.432;28.050;2023-08-24T02:47:59;24.0;20.0;
52290;PMS5003;39663;45.432;28.050;2023-08-24T02:48:31;24.0;20.0;
52290;PMS5003;39663;45.432;28.050;2023-08-24T02:49:03;19.0;18.0;
52290;PMS5003;39663;45.432;28.050;2023-08-24T02:49:34;23.0;21.0;
52290;PMS5003;39663;45.432;28.050;2023-08-24T02:50:06;26.0;25.0;
52290;PMS5003;39663;45.432;28.050;2023-08-24T02:50:38;53.0;52.0;
52290;PMS5003;39663;45.432;28.050;2023-08-24T02:51:09;32.0;32.0;
52290;PMS5003;39663;45.432;28.050;2023-08-24T02:51:41;27.0;24.0;
52290;PMS5003;39663;45.432;28.050;2023-08-24T02:52:13;32.0;28.0;
52290;PMS5003;39663;45.432;28.050;2023-08-24T02:52:44;22.0;21.0;
52290;PMS5003;39663;45.432;28.050;2023-08-24T02:53:15;21.0;21.0;
52290;PMS5003;39663;45.432;28.050;2023-08-24T02:53:47;26.0;23.0;
52290;PMS5003;39663;45.432;28.050;2023-08-24T02:54:18;33.0;31.0;
52290;PMS5003;39663;45.432;28.050;2023-08-24T02:54:50;21.0;21.0;
52290;PMS5003;39663;45.432;28.050;2023-08-24T02:55:21;20.0;20.0;
52290;PMS5003;39663;45.432;28.050;2023-08-24T02:55:53;26.0;25.0;
52290;PMS5003;39663;45.432;28.050;2023-08-24T02:56:25;17.0;17.0;
52290;PMS5003;39663;45.432;28.050;2023-08-24T02:56:57;21.0;18.0;
52290;PMS5003;39663;45.432;28.050;2023-08-24T02:57:29;26.0;22.0;
52290;PMS5003;39663;45.432;28.050;2023-08-24T02:58:00;28.0;28.0;
52290;PMS5003;39663;45.432;28.050;2023-08-24T02:58:31;22.0;20.0;
52290;PMS5003;39663;45.432;28.050;2023-08-24T02:59:03;19.0;18.0;
52290;PMS5003;39663;45.432;28.050;2023-08-24T02:59:34;20.0;18.0;
52290;PMS5003;39663;45.432;28.050;2023-08-24T03:00:06;20.0;18.0;
52290;PMS5003;39663;45.432;28.050;2023-08-24T03:00:39;23.0;19.0;
52290;PMS5003;39663;45.432;28.050;2023-08-24T03:01:10;21.0;21.0;
52290;PMS5003;39663;45.432;28.050;2023-08-24T03:01:42;21.0;20.0;
52290;PMS5003;39663;45.432;28.050;2023-08-24T03:02:13;23.0;21.0;
52290;PMS5003;39663;45.432;28.050;2023-08-24T03:02:45;24.0;21.0;
52290;PMS5003;39663;45.432;28.050;2023-08-24T03:03:16;21.0;21.0;
52290;PMS5003;39663;45.432;28.050;2023-08-24T03:03:48;34.0;33.0;
52290;PMS5003;39663;45.432;28.050;2023-08-24T03:04:20;25.0;24.0;
52290;PMS5003;39663;45.432;28.050;2023-08-24T03:04:52;22.0;21.0;
52290;PMS5003;39663;45.432;28.050;2023-08-24T03:05:24;23.0;23.0;
52290;PMS5003;39663;45.432;28.050;2023-08-24T03:05:56;20.0;20.0;
52290;PMS5003;39663;45.432;28.050;2023-08-24T03:06:29;27.0;23.0;
52290;PMS5003;39663;45.432;28.050;2023-08-24T03:07:00;22.0;21.0;
52290;PMS5003;39663;45.432;28.050;2023-08-24T03:07:31;23.0;20.0;
52290;PMS5003;39663;45.432;28.050;2023-08-24T03:08:03;22.0;22.0;
52290;PMS5003;39663;45.432;28.050;2023-08-24T03:08:35;28.0;27.0;
52290;PMS5003;39663;45.432;28.050;2023-08-24T03:09:07;26.0;26.0;
52290;PMS5003;39663;45.432;28.050;2023-08-24T03:09:38;23.0;21.0;
52290;PMS5003;39663;45.432;28.050;2023-08-24T03:10:10;26.0;24.0;
52290;PMS5003;39663;45.432;28.050;2023-08-24T03:10:41;26.0;22.0;
52290;PMS5003;39663;45.432;28.050;2023-08-24T03:11:13;23.0;22.0;
52290;PMS5003;39663;45.432;28.050;2023-08-24T03:11:44;26.0;22.0;
52290;PMS5003;39663;45.432;28.050;2023-08-24T03:12:16;31.0;29.0;
52290;PMS5003;39663;45.432;28.050;2023-08-24T03:12:47;32.0;28.0;
52290;PMS5003;39663;45.432;28.050;2023-08-24T03:13:19;30.0;30.0;
52290;PMS5003;39663;45.432;28.050;2023-08-24T03:13:51;24.0;21.0;
52290;PMS5003;39663;45.432;28.050;2023-08-24T03:14:22;26.0;23.0;
52290;PMS5003;39663;45.432;28.050;2023-08-24T03:14:54;24.0;24.0;
52290;PMS5003;39663;45.432;28.050;2023-08-24T03:15:25;21.0;21.0;
52290;PMS5003;39663;45.432;28.050;2023-08-24T03:15:57;23.0;23.0;
52290;PMS5003;39663;45.432;28.050;2023-08-24T03:16:33;28.0;27.0;
52290;PMS5003;39663;45.432;28.050;2023-08-24T03:17:05;25.0;22.0;
52290;PMS5003;39663;45.432;28.050;2023-08-24T03:17:36;25.0;22.0;
52290;PMS5003;39663;45.432;28.050;2023-08-24T03:18:07;22.0;22.0;
52290;PMS5003;39663;45.432;28.050;2023-08-24T03:18:40;23.0;21.0;
52290;PMS5003;39663;45.432;28.050;2023-08-24T03:19:12;23.0;22.0;